createdAt,value
2022-08-03T00:00:41.040Z,100963.25
2022-08-03T00:03:08.574Z,100954.34
2022-08-03T00:05:37.710Z,100950.13
2022-08-03T00:08:05.618Z,100952.66
2022-08-03T00:10:34.477Z,100954.41
2022-08-03T00:13:01.977Z,100960.78
2022-08-03T00:15:31.747Z,100962.03
2022-08-03T00:17:59.355Z,100957.00
2022-08-03T00:20:27.015Z,100969.66
2022-08-03T00:22:54.574Z,100960.47
2022-08-03T00:25:22.276Z,100965.75
2022-08-03T00:27:50.412Z,100954.66
2022-08-03T00:30:18.632Z,100959.91
2022-08-03T00:32:47.450Z,100956.69
2022-08-03T00:35:36.882Z,100960.84
2022-08-03T00:38:02.458Z,100947.91
2022-08-03T00:40:30.264Z,100955.81
2022-08-03T00:43:02.944Z,100963.50
2022-08-03T00:45:33.452Z,100959.44
2022-08-03T00:48:01.829Z,100956.25
2022-08-03T00:50:31.321Z,100957.84
2022-08-03T00:53:00.264Z,100958.16
2022-08-03T00:55:28.220Z,100956.84
2022-08-03T00:57:56.382Z,100945.19
2022-08-03T01:00:26.798Z,100939.88
2022-08-03T01:02:54.870Z,100950.50
2022-08-03T01:05:22.620Z,100947.56
2022-08-03T01:08:29.037Z,100953.03
2022-08-03T01:11:15.211Z,100941.69
2022-08-03T01:14:01.582Z,100938.88
2022-08-03T01:16:51.477Z,100947.69
2022-08-03T01:19:31.041Z,100951.81
2022-08-03T01:22:19.761Z,100946.16
2022-08-03T01:25:03.219Z,100945.47
2022-08-03T01:27:55.482Z,100955.59
2022-08-03T01:30:28.891Z,100955.69
2022-08-03T01:33:03.477Z,100952.25
2022-08-03T01:35:45.807Z,100951.88
2022-08-03T01:38:23.215Z,100959.94
2022-08-03T01:40:54.974Z,100961.97
2022-08-03T01:44:27.264Z,100954.78
2022-08-03T01:46:17.539Z,100949.38
2022-08-03T01:48:47.844Z,100955.47
2022-08-03T01:51:20.393Z,100962.31
2022-08-03T01:53:50.393Z,100958.19
2022-08-03T01:56:20.624Z,100959.31
2022-08-03T01:58:51.598Z,100957.38
2022-08-03T02:01:21.820Z,100953.84
2022-08-03T02:03:59.557Z,100946.66
2022-08-03T02:07:01.318Z,100947.97
2022-08-03T02:09:21.501Z,100945.53
2022-08-03T02:11:51.406Z,100951.00
2022-08-03T02:14:20.591Z,100949.03
2022-08-03T02:16:51.480Z,100948.22
2022-08-03T02:19:19.965Z,100946.19
2022-08-03T02:21:56.285Z,100951.03
2022-08-03T02:24:30.232Z,100943.66
2022-08-03T02:26:59.587Z,100955.09
2022-08-03T02:29:39.734Z,100944.78
2022-08-03T02:32:17.045Z,100953.56
2022-08-03T02:34:49.384Z,100955.69
2022-08-03T02:37:20.111Z,100952.47
2022-08-03T02:39:49.611Z,100956.31
2022-08-03T02:42:21.871Z,100945.69
2022-08-03T02:44:53.050Z,100953.06
2022-08-03T02:47:21.799Z,100954.69
2022-08-03T02:49:52.325Z,100950.31
2022-08-03T02:52:27.047Z,100947.59
2022-08-03T02:55:00.513Z,100958.53
2022-08-03T02:57:31.076Z,100949.81
2022-08-03T03:00:00.283Z,100959.94
2022-08-03T03:02:29.449Z,100961.16
2022-08-03T03:05:53.266Z,100961.75
2022-08-03T03:07:51.684Z,100959.66
2022-08-03T03:10:23.581Z,100965.72
2022-08-03T03:12:55.049Z,100966.28
2022-08-03T03:15:27.359Z,100968.47
2022-08-03T03:17:55.844Z,100967.38
2022-08-03T03:20:29.498Z,100969.41
2022-08-03T03:23:02.004Z,100974.88
2022-08-03T03:25:33.522Z,100972.13
2022-08-03T03:28:02.181Z,100968.00
2022-08-03T03:30:30.644Z,100968.00
2022-08-03T03:32:59.424Z,100972.31
2022-08-03T03:35:28.319Z,100969.59
2022-08-03T03:37:55.982Z,100969.13
2022-08-03T03:40:24.098Z,100978.41
2022-08-03T03:42:52.022Z,100963.13
2022-08-03T03:45:21.084Z,100972.94
2022-08-03T03:47:48.810Z,100974.56
2022-08-03T03:50:18.572Z,100976.97
2022-08-03T03:52:46.518Z,100995.50
2022-08-03T03:55:18.433Z,101002.19
2022-08-03T03:57:46.593Z,101005.44
2022-08-03T04:00:15.689Z,101027.00
2022-08-03T04:02:43.487Z,101026.81
2022-08-03T04:05:29.695Z,101036.53
2022-08-03T04:08:20.128Z,101041.31
2022-08-03T04:10:59.285Z,101040.06
2022-08-03T04:13:38.123Z,101061.44
2022-08-03T04:16:08.084Z,101061.31
2022-08-03T04:18:42.241Z,101058.53
2022-08-03T04:21:13.474Z,101052.47
2022-08-03T04:23:45.450Z,101063.56
2022-08-03T04:26:15.673Z,101057.19
2022-08-03T04:28:46.385Z,101061.72
2022-08-03T04:31:16.476Z,101058.09
2022-08-03T04:33:46.138Z,101061.50
2022-08-03T04:36:18.470Z,101068.22
2022-08-03T04:39:07.206Z,101069.41
2022-08-03T04:42:08.277Z,101068.59
2022-08-03T04:44:28.648Z,101064.34
2022-08-03T04:46:58.466Z,101071.13
2022-08-03T04:49:26.667Z,101071.13
2022-08-03T04:51:54.433Z,101072.63
2022-08-03T04:54:21.911Z,101069.78
2022-08-03T04:56:49.367Z,101065.69
2022-08-03T04:59:18.109Z,101072.19
2022-08-03T05:01:45.720Z,101080.91
2022-08-03T05:04:13.732Z,101077.75
2022-08-03T05:06:47.874Z,101086.31
2022-08-03T05:09:25.948Z,101081.41
2022-08-03T05:12:04.032Z,101089.28
2022-08-03T05:14:31.591Z,101101.78
2022-08-03T05:16:59.137Z,101091.88
2022-08-03T05:19:26.747Z,101099.84
2022-08-03T05:21:54.347Z,101100.38
2022-08-03T05:24:22.009Z,101102.44
2022-08-03T05:26:49.632Z,101091.81
2022-08-03T05:29:17.158Z,101106.22
2022-08-03T05:31:44.657Z,101098.25
2022-08-03T05:34:12.234Z,101092.59
2022-08-03T05:36:39.977Z,101100.38
2022-08-03T05:39:07.550Z,101102.50
2022-08-03T05:41:37.162Z,101107.91
2022-08-03T05:44:05.537Z,101112.44
2022-08-03T05:46:33.064Z,101125.00
2022-08-03T05:49:01.843Z,101122.88
2022-08-03T05:51:30.546Z,101128.28
2022-08-03T05:53:58.133Z,101129.34
2022-08-03T05:56:25.797Z,101129.00
2022-08-03T05:58:54.923Z,101144.00
2022-08-03T06:01:22.945Z,101147.78
2022-08-03T06:03:52.445Z,101144.13
2022-08-03T06:06:20.015Z,101145.97
2022-08-03T06:08:49.082Z,101138.13
2022-08-03T06:11:16.950Z,101150.44
2022-08-03T06:13:45.165Z,101163.44
2022-08-03T06:16:12.808Z,101160.34
2022-08-03T06:18:41.146Z,101158.72
2022-08-03T06:21:15.399Z,101160.13
2022-08-03T06:23:54.446Z,101150.22
2022-08-03T06:26:28.096Z,101159.13
2022-08-03T06:28:57.562Z,101165.03
2022-08-03T06:31:33.289Z,101165.13
2022-08-03T06:34:32.155Z,101169.59
2022-08-03T06:36:53.074Z,101161.97
2022-08-03T06:39:23.619Z,101163.72
2022-08-03T06:41:52.653Z,101173.72
2022-08-03T06:44:20.716Z,101163.59
2022-08-03T06:46:48.297Z,101169.69
2022-08-03T06:49:15.862Z,101169.25
2022-08-03T06:52:06.154Z,101168.66
2022-08-03T06:54:33.329Z,101169.47
2022-08-03T06:57:01.569Z,101165.81
2022-08-03T07:00:10.593Z,101162.94
2022-08-03T07:02:19.765Z,101173.50
2022-08-03T07:04:49.373Z,101183.69
2022-08-03T07:07:17.759Z,101184.38
2022-08-03T07:09:57.182Z,101183.75
2022-08-03T07:12:29.581Z,101182.66
2022-08-03T07:15:02.893Z,101182.19
2022-08-03T07:17:34.988Z,101185.75
2022-08-03T07:20:05.702Z,101186.88
2022-08-03T07:22:33.805Z,101206.84
2022-08-03T07:25:01.441Z,101196.38
2022-08-03T07:27:31.300Z,101211.72
2022-08-03T07:30:00.098Z,101202.72
2022-08-03T07:32:31.762Z,101190.25
2022-08-03T07:35:01.126Z,101197.00
2022-08-03T07:37:31.219Z,101207.75
2022-08-03T07:39:59.805Z,101190.78
2022-08-03T07:42:29.014Z,101195.72
2022-08-03T07:44:57.504Z,101198.06
2022-08-03T07:47:35.379Z,101199.34
2022-08-03T07:50:04.588Z,101210.66
2022-08-03T07:52:50.478Z,101212.66
2022-08-03T07:55:24.634Z,101207.28
2022-08-03T07:58:06.512Z,101212.00
2022-08-03T08:00:34.618Z,101217.34
2022-08-03T08:03:02.976Z,101216.09
2022-08-03T08:05:30.626Z,101209.66
2022-08-03T08:07:58.168Z,101217.84
2022-08-03T08:10:26.104Z,101217.59
2022-08-03T08:12:54.121Z,101224.69
2022-08-03T08:15:21.960Z,101226.03
2022-08-03T08:17:52.379Z,101218.13
2022-08-03T08:20:27.818Z,101217.53
2022-08-03T08:22:58.358Z,101209.66
2022-08-03T08:25:31.468Z,101205.44
2022-08-03T08:28:29.132Z,101204.25
2022-08-03T08:30:52.360Z,101200.44
2022-08-03T08:33:23.353Z,101196.00
2022-08-03T08:35:53.852Z,101188.53
2022-08-03T08:38:22.456Z,101188.16
2022-08-03T08:40:51.127Z,101188.59
2022-08-03T08:43:18.679Z,101182.25
2022-08-03T08:45:47.661Z,101196.13
2022-08-03T08:48:18.657Z,101188.28
2022-08-03T08:50:47.010Z,101203.72
2022-08-03T08:53:17.402Z,101200.47
2022-08-03T08:55:59.131Z,101200.00
2022-08-03T08:58:37.347Z,101195.34
2022-08-03T09:01:06.783Z,101196.44
2022-08-03T09:03:34.889Z,101202.50
2022-08-03T09:06:02.861Z,101204.75
2022-08-03T09:08:32.304Z,101203.72
2022-08-03T09:11:00.642Z,101206.25
2022-08-03T09:13:29.438Z,101204.88
2022-08-03T09:16:16.481Z,101206.28
2022-08-03T09:18:49.426Z,101206.69
2022-08-03T09:21:31.769Z,101215.38
2022-08-03T09:24:04.421Z,101216.13
2022-08-03T09:26:37.056Z,101224.16
2022-08-03T09:29:13.191Z,101220.56
2022-08-03T09:31:44.861Z,101225.28
2022-08-03T09:34:15.532Z,101222.16
2022-08-03T09:36:51.084Z,101230.22
2022-08-03T09:39:42.105Z,101242.38
2022-08-03T09:42:18.348Z,101231.97
2022-08-03T09:44:50.700Z,101230.50
2022-08-03T09:47:30.518Z,101227.94
2022-08-03T09:50:02.456Z,101234.31
2022-08-03T09:52:38.944Z,101232.00
2022-08-03T09:56:32.551Z,101232.81
2022-08-03T09:58:09.680Z,101240.66
2022-08-03T10:00:56.407Z,101240.84
2022-08-03T10:03:25.430Z,101242.44
2022-08-03T10:05:58.993Z,101242.34
2022-08-03T10:08:27.526Z,101251.53
2022-08-03T10:10:55.303Z,101243.16
2022-08-03T10:13:23.851Z,101243.78
2022-08-03T10:16:22.082Z,101234.78
2022-08-03T10:18:39.307Z,101234.28
2022-08-03T10:21:10.866Z,101228.00
2022-08-03T10:23:39.193Z,101232.50
2022-08-03T10:26:08.414Z,101229.34
2022-08-03T10:28:44.944Z,101219.84
2022-08-03T10:31:14.621Z,101218.34
2022-08-03T10:33:51.966Z,101213.09
2022-08-03T10:36:28.153Z,101218.72
2022-08-03T10:38:57.390Z,101210.66
2022-08-03T10:41:31.723Z,101212.53
2022-08-03T10:44:05.851Z,101206.75
2022-08-03T10:46:35.798Z,101215.31
2022-08-03T10:49:04.301Z,101203.50
2022-08-03T10:51:32.659Z,101203.38
2022-08-03T10:54:01.757Z,101194.00
2022-08-03T10:56:50.879Z,101202.22
2022-08-03T11:00:02.245Z,101203.16
2022-08-03T11:03:03.872Z,101193.97
2022-08-03T11:05:59.038Z,101205.59
2022-08-03T11:08:28.372Z,101212.50
2022-08-03T11:11:16.118Z,101192.53
2022-08-03T11:14:04.855Z,101201.28
2022-08-03T11:16:38.191Z,101202.75
2022-08-03T11:19:08.856Z,101204.69
2022-08-03T11:21:51.626Z,101205.00
2022-08-03T11:24:37.552Z,101205.16
2022-08-03T11:27:30.927Z,101195.06
2022-08-03T11:30:10.477Z,101195.81
2022-08-03T11:32:38.322Z,101206.88
2022-08-03T11:35:26.204Z,101198.91
2022-08-03T11:38:04.817Z,101201.53
2022-08-03T11:40:51.003Z,101189.78
2022-08-03T11:43:31.451Z,101198.13
2022-08-03T11:46:07.392Z,101206.34
2022-08-03T11:48:46.697Z,101191.03
2022-08-03T11:51:29.583Z,101204.84
2022-08-03T11:54:06.578Z,101201.88
2022-08-03T11:56:48.567Z,101201.69
2022-08-03T11:59:22.073Z,101203.97
2022-08-03T12:01:53.848Z,101207.91
2022-08-03T12:04:21.798Z,101210.75
2022-08-03T12:07:07.164Z,101197.94
2022-08-03T12:09:36.770Z,101204.28
2022-08-03T12:12:04.716Z,101207.88
2022-08-03T12:14:50.375Z,101202.00
2022-08-03T12:17:22.157Z,101201.25
2022-08-03T12:19:52.433Z,101195.50
2022-08-03T12:22:35.641Z,101192.06
2022-08-03T12:25:07.459Z,101188.34
2022-08-03T12:27:35.923Z,101207.75
2022-08-03T12:30:05.420Z,101204.47
2022-08-03T12:32:33.221Z,101205.25
2022-08-03T12:35:06.177Z,101204.47
2022-08-03T12:37:34.290Z,101206.81
2022-08-03T12:40:09.977Z,101213.78
2022-08-03T12:42:40.182Z,101214.59
2022-08-03T12:45:22.446Z,101208.41
2022-08-03T12:47:58.591Z,101203.81
2022-08-03T12:50:34.853Z,101205.19
2022-08-03T12:53:05.621Z,101201.09
2022-08-03T12:55:57.552Z,101202.78
2022-08-03T12:58:34.374Z,101198.41
2022-08-03T13:01:10.142Z,101206.31
2022-08-03T13:03:49.687Z,101201.16
2022-08-03T13:06:25.799Z,101202.34
2022-08-03T13:09:07.436Z,101198.53
2022-08-03T13:11:55.507Z,101198.31
2022-08-03T13:14:23.939Z,101211.25
2022-08-03T13:16:51.920Z,101216.66
2022-08-03T13:19:19.539Z,101213.22
2022-08-03T13:22:01.690Z,101210.72
2022-08-03T13:24:33.636Z,101217.38
2022-08-03T13:27:22.052Z,101214.41
2022-08-03T13:29:50.909Z,101214.81
2022-08-03T13:32:18.489Z,101201.59
2022-08-03T13:34:46.255Z,101210.47
2022-08-03T13:37:14.775Z,101205.88
2022-08-03T13:40:00.336Z,101209.78
2022-08-03T13:42:35.141Z,101175.41
2022-08-03T13:45:04.206Z,101207.72
2022-08-03T13:47:32.454Z,101199.41
2022-08-03T13:50:02.709Z,101202.44
2022-08-03T13:52:36.156Z,101197.13
2022-08-03T13:55:06.176Z,101202.22
2022-08-03T13:58:02.349Z,101203.56
2022-08-03T14:00:28.631Z,101204.28
2022-08-03T14:03:12.794Z,101200.75
2022-08-03T14:05:42.142Z,101199.59
2022-08-03T14:08:11.102Z,101200.03
2022-08-03T14:10:41.909Z,101191.06
2022-08-03T14:13:11.186Z,101197.50
2022-08-03T14:15:39.152Z,101191.03
2022-08-03T14:18:15.251Z,101188.16
2022-08-03T14:20:50.099Z,101195.16
2022-08-03T14:23:22.042Z,101193.41
2022-08-03T14:25:52.579Z,101199.47
2022-08-03T14:28:23.818Z,101193.69
2022-08-03T14:30:58.732Z,101196.78
2022-08-03T14:33:28.572Z,101194.22
2022-08-03T14:35:56.455Z,101200.78
2022-08-03T14:38:25.107Z,101192.84
2022-08-03T14:40:53.491Z,101188.00
2022-08-03T14:43:22.921Z,101194.53
2022-08-03T14:45:53.762Z,101198.97
2022-08-03T14:50:31.051Z,101188.16
2022-08-03T14:51:10.493Z,101193.53
2022-08-03T14:53:38.143Z,101191.91
2022-08-03T14:56:10.103Z,101205.03
2022-08-03T14:58:38.509Z,101204.06
2022-08-03T15:02:04.648Z,101210.91
2022-08-03T15:03:55.268Z,101211.56
2022-08-03T15:06:22.789Z,101215.00
2022-08-03T15:09:13.623Z,101212.94
2022-08-03T15:11:41.525Z,101213.91
2022-08-03T15:14:09.725Z,101220.09
2022-08-03T15:16:38.485Z,101224.34
2022-08-03T15:20:01.173Z,101225.00
2022-08-03T15:21:53.894Z,101223.38
2022-08-03T15:24:21.477Z,101224.03
2022-08-03T15:26:48.964Z,101227.16
2022-08-03T15:30:09.519Z,101231.84
2022-08-03T15:32:09.032Z,101222.16
2022-08-03T15:34:37.230Z,101224.63
2022-08-03T15:37:15.179Z,101223.06
2022-08-03T15:39:59.176Z,101226.81
2022-08-03T15:42:29.702Z,101225.47
2022-08-03T15:44:57.344Z,101220.66
2022-08-03T15:47:24.950Z,101228.75
2022-08-03T15:49:52.660Z,101229.41
2022-08-03T15:52:20.359Z,101232.03
2022-08-03T15:54:47.939Z,101228.16
2022-08-03T15:57:15.479Z,101223.66
2022-08-03T15:59:43.018Z,101231.13
2022-08-03T16:02:10.781Z,101234.03
2022-08-03T16:04:38.324Z,101227.72
2022-08-03T16:07:05.963Z,101229.66
2022-08-03T16:09:42.055Z,101222.56
2022-08-03T16:12:16.258Z,101228.41
2022-08-03T16:14:54.425Z,101220.47
2022-08-03T16:17:22.881Z,101225.00
2022-08-03T16:19:54.708Z,101237.94
2022-08-03T16:22:23.991Z,101227.13
2022-08-03T16:24:53.454Z,101238.47
2022-08-03T16:27:37.342Z,101239.28
2022-08-03T16:30:12.326Z,101246.41
2022-08-03T16:32:40.168Z,101256.94
2022-08-03T16:35:08.241Z,101254.78
2022-08-03T16:37:38.739Z,101260.63
2022-08-03T16:40:19.276Z,101265.78
2022-08-03T16:42:47.692Z,101265.78
2022-08-03T16:45:15.353Z,101283.09
2022-08-03T16:47:42.939Z,101291.34
2022-08-03T16:50:17.182Z,101310.94
2022-08-03T16:52:48.483Z,101318.19
2022-08-03T16:55:42.938Z,101325.19
2022-08-03T16:58:06.025Z,101343.13
2022-08-03T17:00:41.574Z,101346.22
2022-08-03T17:03:12.538Z,101348.59
2022-08-03T17:05:47.939Z,101356.84
2022-08-03T17:08:26.132Z,101347.72
2022-08-03T17:10:56.224Z,101357.22
2022-08-03T17:13:38.864Z,101369.00
2022-08-03T17:16:08.647Z,101366.53
2022-08-03T17:18:42.273Z,101361.66
2022-08-03T17:21:16.416Z,101366.50
2022-08-03T17:24:20.794Z,101371.31
2022-08-03T17:26:51.635Z,101356.13
2022-08-03T17:29:25.079Z,101364.97
2022-08-03T17:31:53.380Z,101362.22
2022-08-03T17:34:26.312Z,101363.84
2022-08-03T17:37:17.747Z,101362.22
2022-08-03T17:39:59.831Z,101366.09
2022-08-03T17:45:17.082Z,101362.28
2022-08-03T17:47:57.466Z,101360.00
2022-08-03T17:50:41.743Z,101354.66
2022-08-03T17:53:24.041Z,101349.47
2022-08-03T17:56:38.862Z,101345.09
2022-08-03T17:59:12.049Z,101346.72
2022-08-03T18:02:22.358Z,101342.53
2022-08-03T18:05:16.603Z,101337.72
2022-08-03T18:08:01.614Z,101340.16
2022-08-03T18:10:35.135Z,101337.91
2022-08-03T18:13:11.367Z,101336.94
2022-08-03T18:15:47.295Z,101336.63
2022-08-03T18:18:32.437Z,101334.22
2022-08-03T18:21:06.852Z,101337.25
2022-08-03T18:23:40.047Z,101333.59
2022-08-03T18:26:12.011Z,101337.94
2022-08-03T18:28:41.101Z,101342.13
2022-08-03T18:31:13.026Z,101330.81
2022-08-03T18:34:17.628Z,101318.28
2022-08-03T18:36:49.930Z,101334.75
2022-08-03T18:39:19.637Z,101327.47
2022-08-03T18:41:47.439Z,101333.59
2022-08-03T18:44:46.540Z,101346.00
2022-08-03T18:47:23.550Z,101344.88
2022-08-03T18:49:55.630Z,101342.75
2022-08-03T18:52:37.352Z,101355.13
2022-08-03T18:55:21.056Z,101346.44
2022-08-03T18:58:29.789Z,101353.34
2022-08-03T19:01:15.417Z,101352.34
2022-08-03T19:04:24.243Z,101350.56
2022-08-03T19:06:57.726Z,101351.06
2022-08-03T19:09:34.689Z,101360.41
2022-08-03T19:15:00.520Z,101347.63
2022-08-03T19:17:36.216Z,101336.94
2022-08-03T19:20:09.316Z,101338.88
2022-08-03T19:22:39.932Z,101313.75
2022-08-03T19:25:13.680Z,101322.13
2022-08-03T19:27:46.002Z,101328.41
2022-08-03T19:30:38.895Z,101330.84
2022-08-03T19:33:14.559Z,101326.38
2022-08-03T19:35:52.109Z,101319.44
2022-08-03T19:38:29.230Z,101323.50
2022-08-03T19:41:04.488Z,101319.00
2022-08-03T19:43:52.875Z,101327.22
2022-08-03T19:46:30.217Z,101315.16
2022-08-03T19:49:14.736Z,101305.75
2022-08-03T19:52:01.225Z,101313.69
2022-08-03T19:54:53.118Z,101314.50
2022-08-03T19:57:25.184Z,101325.47
2022-08-03T19:59:54.984Z,101315.75
2022-08-03T20:02:26.873Z,101333.44
2022-08-03T20:05:00.469Z,101322.94
2022-08-03T20:07:31.170Z,101331.06
2022-08-03T20:12:49.128Z,101332.75
2022-08-03T20:18:04.611Z,101356.41
2022-08-03T20:20:37.298Z,101353.97
2022-08-03T20:23:19.603Z,101356.72
2022-08-03T20:25:58.578Z,101368.50
2022-08-03T20:28:55.389Z,101367.38
2022-08-03T20:31:32.216Z,101361.91
2022-08-03T20:34:04.531Z,101364.13
2022-08-03T20:36:32.003Z,101366.34
2022-08-03T20:39:00.019Z,101373.47
2022-08-03T20:41:27.579Z,101361.38
2022-08-03T20:43:55.105Z,101366.88
2022-08-03T20:46:34.302Z,101355.91
2022-08-03T20:49:09.459Z,101355.41
2022-08-03T20:51:50.524Z,101356.72
2022-08-03T20:54:30.840Z,101357.22
2022-08-03T20:57:04.483Z,101355.31
2022-08-03T20:59:50.271Z,101367.06
2022-08-03T21:02:29.619Z,101363.00
2022-08-03T21:05:08.566Z,101352.34
2022-08-03T21:08:05.002Z,101360.47
2022-08-03T21:10:37.865Z,101359.16
2022-08-03T21:13:04.327Z,101371.19
2022-08-03T21:13:10.126Z,101346.50
2022-08-03T21:13:10.392Z,101332.03
2022-08-03T21:13:11.155Z,101336.13
2022-08-03T21:13:18.943Z,101350.44
2022-08-03T21:16:07.145Z,101346.88
2022-08-03T21:18:46.211Z,101352.75
2022-08-03T21:21:16.419Z,101360.56
2022-08-03T21:23:48.576Z,101357.84
2022-08-03T21:26:20.029Z,101373.66
2022-08-03T21:28:52.056Z,101376.41
2022-08-03T21:31:25.213Z,101375.09
2022-08-03T21:33:56.785Z,101373.75
2022-08-03T21:36:26.908Z,101377.09
2022-08-03T21:38:57.489Z,101374.06
2022-08-03T21:41:27.866Z,101368.16
2022-08-03T21:43:55.731Z,101374.66
2022-08-03T21:46:24.131Z,101379.13
2022-08-03T21:50:06.893Z,101376.91
2022-08-03T21:51:49.754Z,101375.28
2022-08-03T21:54:20.676Z,101377.50
2022-08-03T21:56:48.807Z,101374.75
2022-08-03T21:59:20.821Z,101376.50
2022-08-03T22:01:51.541Z,101383.09
2022-08-03T22:04:50.101Z,101392.94
2022-08-03T22:07:10.980Z,101390.69
2022-08-03T22:09:38.518Z,101376.69
2022-08-03T22:12:06.735Z,101379.63
2022-08-03T22:14:34.213Z,101384.81
2022-08-03T22:17:06.190Z,101382.38
2022-08-03T22:19:34.310Z,101388.16
2022-08-03T22:22:06.302Z,101377.63
2022-08-03T22:24:36.547Z,101380.34
2022-08-03T22:27:22.711Z,101374.47
2022-08-03T22:29:52.013Z,101380.75
2022-08-03T22:32:20.482Z,101378.13
2022-08-03T22:34:51.857Z,101374.06
2022-08-03T22:37:22.181Z,101374.66
2022-08-03T22:39:50.243Z,101369.81
2022-08-03T22:42:19.795Z,101365.25
2022-08-03T22:44:50.204Z,101373.44
2022-08-03T22:47:22.545Z,101359.25
2022-08-03T22:50:32.125Z,101351.34
2022-08-03T22:52:42.670Z,101358.84
2022-08-03T22:55:18.835Z,101361.59
2022-08-03T22:57:55.614Z,101363.00
2022-08-03T23:00:25.134Z,101355.38
2022-08-03T23:02:54.370Z,101359.56
2022-08-03T23:06:01.186Z,101357.13
2022-08-03T23:08:15.440Z,101358.25
2022-08-03T23:10:47.216Z,101347.38
2022-08-03T23:13:17.484Z,101338.03
2022-08-03T23:16:02.834Z,101306.94
2022-08-03T23:18:37.272Z,101305.50
2022-08-03T23:21:11.149Z,101323.41
2022-08-03T23:23:44.392Z,101313.25
2022-08-03T23:26:14.075Z,101313.66
2022-08-03T23:28:45.491Z,101318.31
2022-08-03T23:31:15.153Z,101324.91
2022-08-03T23:33:45.182Z,101321.88
2022-08-03T23:36:30.888Z,101318.91
2022-08-03T23:39:02.657Z,101327.94
2022-08-03T23:41:32.691Z,101335.34
2022-08-03T23:44:03.664Z,101335.84
2022-08-03T23:46:33.384Z,101324.63
2022-08-03T23:49:01.093Z,101326.03
2022-08-03T23:51:34.707Z,101321.66
2022-08-03T23:54:14.490Z,101322.88
2022-08-03T23:56:54.660Z,101326.78
2022-08-03T23:59:32.430Z,101336.22
